Relevés horaires Gösgen (Suisse)


Relevés horaires à Gösgen - Mardi 03 Juill. 2018
Heure UTC1 Température [°C] Vent [km/h] Hum. [%] Pres.4 [hPa] Visi. [Km] Nébu. [octa] Préc.5 [mm] Cond.
2m. Res. Ros. Dir.2 Vit. Moy. Raf.3
23:00 17.1 17.1 16.2 N 1.9 -- -- 94 1017.2 -- -- -- --
22:00 17.8 17.8 16.6 SSO 1.9 -- -- 93 1016.6 -- -- -- --
21:00 18.1 18.1 16.8 SO 3.7 -- 9.3 92 1016.4(0.4/3h) -- -- -- --
20:00 19.4 19.4 17.3 ONO 1.9 -- -- 88 1015.9 -- -- -- --
19:00 21.5 21.5 16.9 NE 0.0 -- -- 75 1015.4 -- -- -- --
18:00 24.0 24.0 16.3 NNE 3.7 -- 14.8 62 1015.1(-0.7/3h) -- -- 10/12h
--
17:00 24.6 24.6 16.4 E 1.9 -- -- 60 1014.9 -- -- -- --
16:00 25.4 25.4 15.5 E 1.9 -- -- 54 1015 -- -- -- --
15:00 24.0 24.0 14.7 N 3.7 -- 14.8 56 1015.8(-0.9/3h) -- -- -- --
14:00 22.4 22.4 15.6 SSO 3.7 -- -- 65 1016.5 -- -- -- --
13:00 21.1 21.1 16.3 O 3.7 -- -- 74 1017.1 -- -- -- --
12:00 20.8 20.8 16.3 O 9.3 -- 48.2 75 1017.2(-0.7/3h) -- -- 10/6h
--
11:00 19.9 19.9 16.2 OSO 7.4 -- -- 79 1018 -- -- -- --
10:00 19.5 19.5 16.1 SO 7.4 -- -- 81 1018 -- -- -- --
09:00 17.4 17.4 15.7 SSO 5.6 -- 48.2 90 1018.5 -- -- -- --
08:00 16.9 16.6 15.6 ONO 13.0 -- -- 92 1017.4 -- -- -- --
07:00 17.1 16.8 15.5 O 13.0 -- -- 90 1017.6 -- -- -- --
06:00 19.3 18.9 16.0 SO 24.1 -- 42.6 81 1016 -- -- 0.4/12h
0.4/24h
--
05:00 18.3 18.3 17.0 SO 3.7 -- -- 92 1014.7 -- -- -- --
04:00 17.7 17.7 16.8 SO 1.9 -- -- 94 1014.8 -- -- -- --
03:00 17.6 17.6 16.8 S 0.0 -- 5.6 95 1014.8 -- -- -- --
02:00 17.6 17.6 16.8 S 1.9 -- -- 95 1014.6 -- -- -- --
01:00 18.1 18.1 17.2 O 0.0 -- -- 94 1014.5 -- -- -- --
00:00 18.1 18.1 17.1 NE 1.9 -- 27.8 94 1014.3 -- -- 0.4/6h
--

1 Coordinated Universal Time. Actuellement il est 11:00 locale et 09:00 UTC.

2 Le vent souffle depuis la direction indiquée vers la direction oposée.

3 Les rafales max. sont disponible 40 min après l'heure du relevé.

4 Pour les stations d'altitude (plus de 600m) le géopotentiel du niveau le plus proche de la pression obligatoire est indiqué.

5 Les stations disposant d'un diffuseur peuvent indiquer "trace". Cela signifie que des précipitations ont touchés le sol mais que la quantité est inférieure à 0.1 mm.

Récapitulatif de la journée
Température [°C] Vent [km/h] Ensoleillement4 [h] Precipitations totale5 [mm] Pression [Hpa]
Min1 Max.2 Moy.3 Max. Min Max.
17.5 25.4 0 48.2 4 h 6 min 9.5 1014.3 1018.5

1 Température minimale relevée entre 18:00 UTC la veille et 18:00 UTC le jour donné.

2 Température maximale relevée entre 06:00 UTC le jour donné et 06:00 UTC le lendemain.

3 Vent moyen de la journée basé sur les relevés horaires.

4 Ensoleillement en heures relevé entre 06:00 UTC la veille et 06:00 UTC le jour donné.

5 Précipitations totales tombées entre 06:00 UTC la jour donné et 06:00 UTC le lendemain.

Graphiques horaires